Time;durP1;ratioP1;P1;durP2;ratioP2;P2;SDS_P1;SDS_P2;PMS_P1;PMS_P2;Temp;Humidity;BMP_temperature;BMP_pressure;BME280_temperature;BME280_humidity;BME280_pressure;Samples;Min_cycle;Max_cycle;Signal;HPM_P1;HPM_P2
2021/12/09 00:01:44;;;;;;;24.63;22.23;;;1.60;99.90;;;;;;5044995;28;20561;-72
2021/12/09 00:04:14;;;;;;;24.30;21.77;;;1.60;99.90;;;;;;5042578;28;20973;-71
2021/12/09 00:06:44;;;;;;;25.30;22.67;;;1.60;99.90;;;;;;5044507;28;20464;-70
2021/12/09 00:09:14;;;;;;;25.37;22.70;;;1.60;99.90;;;;;;5050269;28;20478;-69
2021/12/09 00:11:45;;;;;;;25.23;22.47;;;1.60;99.90;;;;;;5053474;28;20478;-69
2021/12/09 00:14:16;;;;;;;37.60;23.87;;;1.60;99.90;;;;;;5048708;28;20462;-71
2021/12/09 00:16:45;;;;;;;25.93;23.20;;;1.50;99.90;;;;;;5030665;28;20496;-70
2021/12/09 00:19:12;;;;;;;24.73;22.13;;;1.50;99.90;;;;;;5045942;28;20832;-70
2021/12/09 00:21:39;;;;;;;41.63;25.00;;;1.50;99.90;;;;;;5041469;28;20462;-69
2021/12/09 00:24:07;;;;;;;31.20;24.10;;;1.50;99.90;;;;;;5042969;28;21061;-71
2021/12/09 00:26:34;;;;;;;26.13;23.07;;;1.60;99.90;;;;;;5053932;28;20505;-71
2021/12/09 00:29:02;;;;;;;41.83;30.20;;;1.60;99.90;;;;;;5054948;28;20475;-72
2021/12/09 00:31:29;;;;;;;46.17;30.63;;;1.60;99.90;;;;;;5052731;28;20629;-69
2021/12/09 00:33:58;;;;;;;31.20;25.73;;;1.60;99.90;;;;;;5056995;28;20470;-69
2021/12/09 00:36:32;;;;;;;27.93;24.80;;;1.60;99.90;;;;;;5046890;28;20618;-67
2021/12/09 00:38:59;;;;;;;48.97;29.40;;;1.50;99.90;;;;;;5049081;28;20464;-71
2021/12/09 00:41:26;;;;;;;46.00;29.63;;;1.50;99.90;;;;;;5053223;28;20480;-69
2021/12/09 00:43:54;;;;;;;27.10;24.33;;;1.50;99.90;;;;;;5057171;28;20824;-68
2021/12/09 00:46:22;;;;;;;25.37;22.97;;;1.60;99.90;;;;;;5059356;28;20467;-69
2021/12/09 00:48:49;;;;;;;33.70;24.80;;;1.70;99.90;;;;;;5053488;28;20464;-70
2021/12/09 00:51:16;;;;;;;30.33;23.87;;;1.70;99.90;;;;;;5050688;28;20986;-70
2021/12/09 00:53:44;;;;;;;24.10;21.77;;;1.60;99.90;;;;;;5054215;28;20458;-71
2021/12/09 00:56:13;;;;;;;25.53;22.90;;;1.60;99.90;;;;;;5054564;28;20473;-72
2021/12/09 00:58:42;;;;;;;37.60;29.80;;;1.60;99.90;;;;;;5059109;28;20973;-71
2021/12/09 01:01:11;;;;;;;27.27;23.93;;;1.60;99.90;;;;;;5049355;28;20492;-71
2021/12/09 01:03:41;;;;;;;33.37;28.10;;;1.70;99.90;;;;;;5049794;28;20463;-69
2021/12/09 01:06:08;;;;;;;35.03;26.33;;;1.60;99.90;;;;;;5053912;28;20462;-71
2021/12/09 01:08:35;;;;;;;29.30;26.10;;;1.60;99.90;;;;;;5058328;28;20839;-69
2021/12/09 01:11:02;;;;;;;28.53;25.43;;;1.60;99.90;;;;;;5051835;28;20462;-70
2021/12/09 01:13:29;;;;;;;27.67;24.90;;;1.60;99.90;;;;;;5047626;28;20526;-70
2021/12/09 01:15:57;;;;;;;48.00;33.13;;;1.60;99.90;;;;;;5049537;28;20513;-71
2021/12/09 01:18:24;;;;;;;30.10;24.70;;;1.70;99.90;;;;;;5061673;28;20459;-70
2021/12/09 01:20:53;;;;;;;29.17;26.10;;;1.60;99.90;;;;;;5062142;28;20462;-71
2021/12/09 01:23:20;;;;;;;52.03;29.07;;;1.70;99.90;;;;;;5056250;28;20461;-71
2021/12/09 01:25:48;;;;;;;42.90;27.30;;;1.60;99.90;;;;;;5044362;28;20469;-70
2021/12/09 01:28:21;;;;;;;38.37;27.60;;;1.60;99.90;;;;;;5054557;28;20622;-72
2021/12/09 01:30:50;;;;;;;21.77;19.97;;;1.70;99.90;;;;;;5055042;28;20473;-70
2021/12/09 01:33:17;;;;;;;23.10;21.00;;;1.80;99.90;;;;;;5058476;28;20461;-71
2021/12/09 01:35:47;;;;;;;26.23;23.23;;;1.80;99.90;;;;;;5063350;28;20920;-70
2021/12/09 01:38:17;;;;;;;21.03;19.47;;;1.90;99.90;;;;;;5053893;28;20906;-71
2021/12/09 01:40:45;;;;;;;23.00;19.10;;;2.00;99.90;;;;;;5054140;28;20518;-71
2021/12/09 01:43:12;;;;;;;20.43;18.93;;;2.00;99.90;;;;;;5054552;28;20524;-71
2021/12/09 01:45:39;;;;;;;20.50;18.90;;;2.00;99.90;;;;;;5055992;28;20981;-70
2021/12/09 01:48:06;;;;;;;24.23;21.13;;;2.00;99.90;;;;;;5055802;28;20466;-71
2021/12/09 01:50:34;;;;;;;36.53;25.60;;;1.90;99.90;;;;;;5054134;28;20458;-71
2021/12/09 01:53:02;;;;;;;39.70;26.03;;;1.70;99.90;;;;;;5052005;28;20497;-69
2021/12/09 01:55:31;;;;;;;32.07;23.43;;;1.60;99.90;;;;;;5057631;28;20571;-70
2021/12/09 01:57:58;;;;;;;25.23;22.80;;;1.50;99.90;;;;;;5060083;28;22639;-70
2021/12/09 02:00:29;;;;;;;23.07;20.77;;;1.40;99.90;;;;;;5056110;28;20477;-69
2021/12/09 02:02:56;;;;;;;21.10;19.70;;;1.30;99.90;;;;;;5055688;28;20455;-71
2021/12/09 02:05:25;;;;;;;21.70;20.20;;;1.30;99.90;;;;;;5056730;28;20469;-70
2021/12/09 02:07:53;;;;;;;22.77;20.57;;;1.20;99.90;;;;;;5051883;28;20463;-70
2021/12/09 02:10:20;;;;;;;21.87;20.07;;;1.10;99.90;;;;;;5053485;28;20545;-70
2021/12/09 02:12:50;;;;;;;24.00;22.13;;;1.10;99.90;;;;;;5056625;28;20527;-70
2021/12/09 02:15:20;;;;;;;21.53;20.03;;;1.10;99.90;;;;;;5043157;28;20835;-70
2021/12/09 02:17:48;;;;;;;21.83;20.23;;;1.00;99.90;;;;;;5052469;28;20477;-69
2021/12/09 02:20:16;;;;;;;21.20;19.77;;;1.00;99.90;;;;;;5055272;28;20470;-71
2021/12/09 02:22:47;;;;;;;20.67;19.40;;;1.00;99.90;;;;;;5059357;28;20456;-71
2021/12/09 02:25:15;;;;;;;21.93;20.33;;;1.30;99.90;;;;;;5058313;28;20462;-69
2021/12/09 02:27:43;;;;;;;21.87;20.37;;;1.30;99.90;;;;;;5057584;28;20473;-70
2021/12/09 02:30:11;;;;;;;21.83;20.27;;;1.20;99.90;;;;;;5052642;28;20463;-70
2021/12/09 02:32:38;;;;;;;22.83;20.93;;;1.20;99.90;;;;;;5050128;28;20818;-71
2021/12/09 02:35:05;;;;;;;22.87;21.27;;;1.20;99.90;;;;;;5052266;28;20471;-69
2021/12/09 02:37:33;;;;;;;22.50;20.90;;;1.10;99.90;;;;;;5056568;28;20494;-69
2021/12/09 02:40:02;;;;;;;22.97;21.00;;;1.10;99.90;;;;;;5053117;28;20494;-71
2021/12/09 02:42:29;;;;;;;22.77;20.73;;;1.20;99.90;;;;;;5055160;28;20467;-69
2021/12/09 02:44:57;;;;;;;22.23;20.23;;;1.30;99.90;;;;;;5055647;28;20497;-71
2021/12/09 02:47:24;;;;;;;23.00;21.40;;;1.40;99.90;;;;;;5034411;28;20973;-70
2021/12/09 02:49:52;;;;;;;22.67;21.00;;;1.30;99.90;;;;;;5044050;28;20463;-72
2021/12/09 02:52:20;;;;;;;24.00;21.87;;;1.30;99.90;;;;;;5058155;28;20487;-71
2021/12/09 02:54:47;;;;;;;22.03;20.60;;;1.40;99.90;;;;;;5058822;28;20608;-69
2021/12/09 02:57:16;;;;;;;23.60;21.90;;;1.50;99.90;;;;;;5042994;28;20490;-69
2021/12/09 02:59:42;;;;;;;23.17;21.37;;;1.50;99.90;;;;;;5033653;28;20460;-70
2021/12/09 03:02:11;;;;;;;22.63;20.93;;;1.50;99.90;;;;;;5039590;28;20942;-71
2021/12/09 03:04:41;;;;;;;26.10;21.00;;;1.50;99.90;;;;;;5054704;28;20471;-69
2021/12/09 03:07:11;;;;;;;22.03;20.23;;;1.50;99.90;;;;;;5050695;28;20559;-70
2021/12/09 03:09:47;;;;;;;22.20;20.80;;;1.50;99.90;;;;;;5057930;28;20462;-69
2021/12/09 03:12:17;;;;;;;22.30;20.10;;;1.50;99.90;;;;;;5053165;28;20471;-70
2021/12/09 03:14:44;;;;;;;25.43;23.23;;;1.50;99.90;;;;;;5063818;28;20478;-69
2021/12/09 03:17:11;;;;;;;21.47;20.03;;;1.60;99.90;;;;;;5056499;28;20496;-71
2021/12/09 03:19:38;;;;;;;23.07;20.53;;;1.60;99.90;;;;;;5033402;28;20463;-71
2021/12/09 03:22:05;;;;;;;20.87;18.93;;;1.70;99.90;;;;;;5034418;28;20472;-71
2021/12/09 03:24:32;;;;;;;20.90;19.10;;;1.90;99.90;;;;;;5047796;28;20458;-69
2021/12/09 03:27:00;;;;;;;19.10;17.80;;;2.00;99.90;;;;;;5042954;28;20473;-67
2021/12/09 03:29:29;;;;;;;20.60;18.80;;;2.00;99.90;;;;;;5034741;28;20523;-71
2021/12/09 03:32:00;;;;;;;19.60;18.40;;;2.10;99.90;;;;;;5035893;28;20466;-73
2021/12/09 03:34:30;;;;;;;19.20;18.00;;;2.10;99.90;;;;;;5033366;28;20478;-71
2021/12/09 03:36:58;;;;;;;20.40;19.00;;;2.20;99.90;;;;;;5034566;28;20488;-72
2021/12/09 03:39:28;;;;;;;20.70;19.30;;;2.30;99.90;;;;;;5037742;28;20471;-69
2021/12/09 03:41:57;;;;;;;20.90;19.17;;;2.30;99.90;;;;;;5045447;28;20482;-67
2021/12/09 03:44:26;;;;;;;20.87;18.60;;;2.40;99.90;;;;;;5053625;28;20798;-68
2021/12/09 03:46:58;;;;;;;20.67;18.87;;;2.40;99.90;;;;;;5036953;28;20493;-69
2021/12/09 03:49:25;;;;;;;20.30;18.87;;;2.40;99.90;;;;;;5040289;28;20478;-68
2021/12/09 03:51:52;;;;;;;24.60;18.40;;;2.50;99.90;;;;;;5037229;28;20490;-71
2021/12/09 03:54:20;;;;;;;20.50;18.90;;;2.50;99.90;;;;;;5036746;28;20467;-70
2021/12/09 03:56:47;;;;;;;20.80;19.33;;;2.50;99.90;;;;;;5033347;28;20513;-69
2021/12/09 03:59:14;;;;;;;19.23;18.00;;;2.50;99.90;;;;;;5035246;28;20543;-66
2021/12/09 04:01:44;;;;;;;20.60;18.83;;;2.50;99.90;;;;;;5037425;28;20466;-68
2021/12/09 04:04:14;;;;;;;21.17;19.43;;;2.50;99.90;;;;;;5049982;28;20464;-70
2021/12/09 04:06:42;;;;;;;19.40;18.17;;;2.50;99.90;;;;;;5054528;28;20806;-69
2021/12/09 04:09:11;;;;;;;20.30;18.70;;;2.50;99.90;;;;;;5049743;28;20469;-69
2021/12/09 04:11:39;;;;;;;20.80;18.60;;;2.50;99.90;;;;;;5053620;28;20462;-68
2021/12/09 04:14:07;;;;;;;20.07;18.40;;;2.50;99.90;;;;;;5052380;28;21100;-68
2021/12/09 04:16:34;;;;;;;21.50;18.80;;;2.50;99.90;;;;;;5044804;28;20488;-69
2021/12/09 04:19:02;;;;;;;19.70;18.23;;;2.50;99.90;;;;;;5052747;28;20471;-67
2021/12/09 04:21:32;;;;;;;19.83;18.53;;;2.50;99.90;;;;;;5046780;28;20960;-69
2021/12/09 04:23:59;;;;;;;19.20;18.10;;;2.60;99.90;;;;;;5045907;28;20474;-68
2021/12/09 04:26:26;;;;;;;20.93;18.93;;;2.60;99.90;;;;;;5037403;28;20813;-71
2021/12/09 04:28:53;;;;;;;20.70;18.73;;;2.60;99.90;;;;;;5042494;28;20465;-70
2021/12/09 04:31:22;;;;;;;20.73;19.10;;;2.60;99.90;;;;;;5030564;28;21009;-71
2021/12/09 04:33:50;;;;;;;20.97;19.07;;;2.60;99.90;;;;;;5045571;28;20459;-69
2021/12/09 04:36:18;;;;;;;21.60;19.33;;;2.60;99.90;;;;;;5056779;28;20484;-68
2021/12/09 04:38:47;;;;;;;19.97;18.13;;;2.50;99.90;;;;;;5049102;28;20513;-66
2021/12/09 04:41:14;;;;;;;21.23;19.03;;;2.50;99.90;;;;;;5052590;28;20479;-68
2021/12/09 04:43:43;;;;;;;19.80;18.37;;;2.50;99.90;;;;;;5059181;28;20849;-69
2021/12/09 04:46:10;;;;;;;19.80;18.27;;;2.50;99.90;;;;;;5041696;28;20530;-67
2021/12/09 04:48:37;;;;;;;20.10;18.60;;;2.50;99.90;;;;;;5042609;28;20468;-67
2021/12/09 04:51:04;;;;;;;20.17;18.97;;;2.40;99.90;;;;;;5054403;28;20492;-66
2021/12/09 04:53:32;;;;;;;20.50;18.73;;;2.40;99.90;;;;;;5057691;28;20848;-68
2021/12/09 04:56:00;;;;;;;20.40;18.97;;;2.30;99.90;;;;;;5045330;28;20529;-68
2021/12/09 04:58:28;;;;;;;20.60;19.20;;;2.20;99.90;;;;;;5049366;28;21021;-66
2021/12/09 05:00:58;;;;;;;19.50;18.40;;;2.20;99.90;;;;;;5043434;28;20562;-66
2021/12/09 05:03:25;;;;;;;20.90;19.20;;;2.20;99.90;;;;;;5046486;28;20475;-68
2021/12/09 05:05:54;;;;;;;22.10;20.20;;;2.10;99.90;;;;;;5047101;28;21048;-68
2021/12/09 05:08:26;;;;;;;21.73;19.77;;;2.00;99.90;;;;;;5050530;28;20472;-68
2021/12/09 05:11:01;;;;;;;22.27;20.17;;;1.90;99.90;;;;;;5051161;28;20520;-68
2021/12/09 05:13:32;;;;;;;21.83;20.20;;;1.80;99.90;;;;;;5057513;28;20457;-67
2021/12/09 05:16:00;;;;;;;22.40;20.60;;;1.70;99.90;;;;;;5045869;28;20472;-67
2021/12/09 05:18:31;;;;;;;22.07;20.20;;;1.60;99.90;;;;;;5046103;28;20490;-67
2021/12/09 05:20:58;;;;;;;24.83;22.00;;;1.50;99.90;;;;;;5054228;28;20462;-68
2021/12/09 05:23:26;;;;;;;22.90;20.90;;;1.40;99.90;;;;;;5059433;28;20460;-69
2021/12/09 05:25:54;;;;;;;23.77;21.67;;;1.40;99.90;;;;;;5050657;28;20463;-69
2021/12/09 05:28:29;;;;;;;23.37;21.57;;;1.30;99.90;;;;;;5054057;28;20466;-69
2021/12/09 05:33:42;;;;;;;23.20;21.30;;;1.20;99.90;;;;;;5055249;28;20801;-66
2021/12/09 05:36:09;;;;;;;23.33;21.77;;;1.20;99.90;;;;;;5055009;28;20857;-68
2021/12/09 05:38:36;;;;;;;26.40;22.50;;;1.10;99.90;;;;;;5062153;28;20494;-68
2021/12/09 05:41:03;;;;;;;23.70;21.57;;;1.00;99.90;;;;;;5064388;28;20485;-67
2021/12/09 05:43:30;;;;;;;24.20;22.20;;;1.00;99.90;;;;;;5058207;28;20462;-69
2021/12/09 05:45:59;;;;;;;25.00;22.70;;;1.00;99.90;;;;;;5061466;28;20457;-69
2021/12/09 05:48:27;;;;;;;22.70;21.20;;;0.90;99.90;;;;;;5057981;28;20456;-66
2021/12/09 05:50:54;;;;;;;23.43;21.77;;;0.80;99.90;;;;;;5057482;28;20455;-69
2021/12/09 05:53:22;;;;;;;23.30;21.70;;;0.90;99.90;;;;;;5055794;28;21045;-68
2021/12/09 05:55:49;;;;;;;24.17;22.20;;;0.90;99.90;;;;;;5054251;28;20473;-69
2021/12/09 05:58:18;;;;;;;23.37;21.73;;;1.00;99.90;;;;;;5062531;28;20499;-69
2021/12/09 06:00:46;;;;;;;23.30;21.60;;;1.00;99.90;;;;;;5058127;28;20468;-67
2021/12/09 06:03:15;;;;;;;24.00;22.27;;;1.00;99.90;;;;;;5056839;28;20461;-69
2021/12/09 06:05:42;;;;;;;25.07;22.40;;;1.10;99.90;;;;;;5055098;28;20977;-69
2021/12/09 06:08:08;;;;;;;23.53;21.73;;;1.20;99.90;;;;;;5059018;28;20458;-68
2021/12/09 06:10:36;;;;;;;24.43;22.50;;;1.20;99.90;;;;;;5057174;28;20459;-70
2021/12/09 06:13:04;;;;;;;24.27;22.17;;;1.30;99.90;;;;;;5062496;28;20480;-70
2021/12/09 06:15:31;;;;;;;24.67;22.50;;;1.20;99.90;;;;;;5057442;28;21001;-67
2021/12/09 06:17:58;;;;;;;22.87;21.13;;;1.20;99.90;;;;;;5056314;28;20843;-67
2021/12/09 06:20:27;;;;;;;25.37;23.10;;;1.10;99.90;;;;;;5062574;28;20470;-69
2021/12/09 06:22:54;;;;;;;26.00;23.73;;;1.10;99.90;;;;;;5062305;28;20818;-70
2021/12/09 06:25:21;;;;;;;24.70;22.50;;;1.10;99.90;;;;;;5056141;28;20463;-68
2021/12/09 06:27:49;;;;;;;27.80;21.63;;;1.00;99.90;;;;;;5056530;28;20815;-70
2021/12/09 06:30:18;;;;;;;24.10;22.03;;;1.10;99.90;;;;;;5061386;28;20960;-70
2021/12/09 06:32:44;;;;;;;25.47;23.40;;;1.10;99.90;;;;;;5048408;28;20469;-70
2021/12/09 06:35:12;;;;;;;23.87;21.70;;;1.00;99.90;;;;;;5059852;28;20466;-71
2021/12/09 06:37:44;;;;;;;25.43;23.17;;;1.00;99.90;;;;;;5056740;28;20515;-69
2021/12/09 06:40:13;;;;;;;26.03;22.30;;;1.00;99.90;;;;;;5053714;28;20932;-71
2021/12/09 06:42:40;;;;;;;24.23;21.77;;;1.10;99.90;;;;;;5056386;28;20473;-68
2021/12/09 06:45:09;;;;;;;24.73;22.47;;;1.10;99.90;;;;;;5055960;28;20528;-68
2021/12/09 06:47:37;;;;;;;26.60;23.17;;;1.00;99.90;;;;;;5049587;28;20891;-70
2021/12/09 06:50:05;;;;;;;35.17;23.10;;;1.00;99.90;;;;;;5054410;28;21024;-71
2021/12/09 06:52:32;;;;;;;24.33;21.90;;;1.10;99.90;;;;;;5051291;28;20612;-69
2021/12/09 06:55:01;;;;;;;24.47;22.37;;;1.10;99.90;;;;;;5054853;28;20954;-69
2021/12/09 06:57:29;;;;;;;25.00;21.90;;;1.10;99.90;;;;;;5048710;28;20524;-67
2021/12/09 06:59:55;;;;;;;29.07;23.10;;;1.00;99.90;;;;;;5046337;28;20965;-69
2021/12/09 07:02:23;;;;;;;25.57;22.73;;;1.10;99.90;;;;;;5050369;28;20470;-68
2021/12/09 07:04:49;;;;;;;25.63;22.83;;;1.20;99.90;;;;;;5061405;28;20466;-69
2021/12/09 07:07:16;;;;;;;25.57;22.83;;;1.30;99.90;;;;;;5057805;28;20473;-70
2021/12/09 07:09:43;;;;;;;24.43;22.53;;;1.50;99.90;;;;;;5056062;28;20466;-68
2021/12/09 07:12:12;;;;;;;23.83;21.43;;;1.60;99.90;;;;;;5056850;28;20463;-71
2021/12/09 07:14:42;;;;;;;24.23;22.13;;;1.80;99.90;;;;;;5057321;28;20465;-72
2021/12/09 07:17:09;;;;;;;24.30;22.30;;;1.90;99.90;;;;;;5052894;28;20895;-70
2021/12/09 07:19:36;;;;;;;23.77;21.67;;;1.80;99.90;;;;;;5055803;28;20808;-69
2021/12/09 07:22:04;;;;;;;23.40;21.50;;;1.80;99.90;;;;;;5056925;28;20989;-69
2021/12/09 07:24:31;;;;;;;173.00;77.83;;;1.70;99.90;;;;;;5055041;28;20459;-71
2021/12/09 07:26:58;;;;;;;39.20;31.90;;;1.80;99.90;;;;;;5060147;28;20463;-69
2021/12/09 07:29:27;;;;;;;25.60;23.27;;;1.70;99.90;;;;;;5055796;28;20779;-71
2021/12/09 07:31:54;;;;;;;27.50;25.27;;;1.70;99.90;;;;;;5050035;28;20463;-68
2021/12/09 07:34:22;;;;;;;23.80;22.00;;;1.70;99.90;;;;;;5053955;28;20456;-71
2021/12/09 07:36:49;;;;;;;22.93;21.23;;;1.80;99.90;;;;;;5045666;28;20464;-71
2021/12/09 07:39:16;;;;;;;24.50;22.10;;;1.80;99.90;;;;;;5046772;28;20560;-68
2021/12/09 07:41:43;;;;;;;23.87;21.83;;;1.80;99.90;;;;;;5046347;28;20545;-71
2021/12/09 07:44:12;;;;;;;25.20;22.50;;;1.80;99.90;;;;;;5048746;28;20465;-70
2021/12/09 07:46:42;;;;;;;24.03;22.23;;;1.80;99.90;;;;;;5045083;28;20467;-68
2021/12/09 07:49:09;;;;;;;25.23;22.77;;;1.80;99.90;;;;;;5044566;28;20500;-68
2021/12/09 07:51:36;;;;;;;24.63;22.40;;;1.90;99.90;;;;;;5036170;28;20490;-71
2021/12/09 07:54:04;;;;;;;24.43;22.00;;;2.00;99.90;;;;;;5036447;28;20467;-72
2021/12/09 07:56:30;;;;;;;25.57;22.60;;;2.00;99.90;;;;;;5045776;28;20462;-71
2021/12/09 07:58:57;;;;;;;23.33;20.60;;;2.00;99.90;;;;;;5049655;28;20843;-69
2021/12/09 08:01:24;;;;;;;22.93;21.03;;;2.10;99.90;;;;;;5048010;28;20470;-71
2021/12/09 08:03:53;;;;;;;22.70;20.60;;;2.10;99.90;;;;;;5051286;28;20472;-70
2021/12/09 08:06:20;;;;;;;22.80;21.10;;;2.10;99.90;;;;;;5047903;28;20498;-68
2021/12/09 08:08:47;;;;;;;21.70;19.80;;;2.10;99.90;;;;;;5050462;28;20459;-71
2021/12/09 08:11:14;;;;;;;23.40;21.30;;;2.10;99.90;;;;;;5053593;28;20467;-71
2021/12/09 08:13:41;;;;;;;21.53;19.70;;;2.10;99.90;;;;;;5050490;28;20466;-71
2021/12/09 08:16:08;;;;;;;24.17;22.07;;;2.00;99.90;;;;;;5052060;28;20461;-71
2021/12/09 08:18:53;;;;;;;23.13;20.93;;;1.90;99.90;;;;;;5053740;28;20506;-68
2021/12/09 08:21:22;;;;;;;24.30;22.20;;;2.00;99.90;;;;;;5054488;28;20463;-67
2021/12/09 08:23:49;;;;;;;23.20;21.30;;;2.10;99.90;;;;;;5053053;28;20474;-68
2021/12/09 08:26:17;;;;;;;22.70;20.53;;;2.20;99.90;;;;;;5049507;28;20463;-70
2021/12/09 08:28:44;;;;;;;24.10;22.30;;;2.20;99.90;;;;;;5045403;28;20552;-69
2021/12/09 08:31:11;;;;;;;22.23;20.57;;;2.20;99.90;;;;;;5050664;28;20990;-70
2021/12/09 08:33:37;;;;;;;23.17;21.10;;;2.20;99.90;;;;;;5063008;28;20466;-67
2021/12/09 08:36:05;;;;;;;24.67;22.67;;;2.30;99.90;;;;;;5055833;28;20974;-67
2021/12/09 08:38:33;;;;;;;23.43;21.53;;;2.30;99.90;;;;;;5052468;28;20572;-70
2021/12/09 08:41:02;;;;;;;24.60;22.40;;;2.20;99.90;;;;;;5052356;28;20493;-70
2021/12/09 08:43:29;;;;;;;24.60;22.47;;;2.30;99.90;;;;;;5047399;28;20462;-71
2021/12/09 08:45:57;;;;;;;23.40;21.60;;;2.20;99.90;;;;;;5041640;28;20456;-67
2021/12/09 08:48:24;;;;;;;26.30;21.43;;;2.10;99.90;;;;;;5032922;28;20478;-69
2021/12/09 08:50:52;;;;;;;22.87;21.07;;;2.20;99.90;;;;;;5037612;28;20468;-67
2021/12/09 08:53:22;;;;;;;23.83;21.53;;;2.30;99.90;;;;;;5047106;28;20487;-71
2021/12/09 08:55:50;;;;;;;23.43;21.00;;;2.30;99.90;;;;;;5045673;28;20465;-68
2021/12/09 08:58:18;;;;;;;24.33;22.03;;;2.30;99.90;;;;;;5041444;28;20933;-66
2021/12/09 09:00:45;;;;;;;25.13;22.80;;;2.30;99.90;;;;;;5038063;28;21355;-70
2021/12/09 09:03:12;;;;;;;23.73;21.43;;;2.40;99.90;;;;;;5048612;28;20464;-70
2021/12/09 09:05:40;;;;;;;24.47;22.30;;;2.50;99.90;;;;;;5053363;28;20486;-69
2021/12/09 09:08:08;;;;;;;25.00;22.50;;;2.70;99.90;;;;;;5048124;28;20471;-68
2021/12/09 09:10:37;;;;;;;26.57;24.03;;;2.70;99.90;;;;;;5049757;28;20456;-67
2021/12/09 09:13:05;;;;;;;22.73;20.70;;;2.70;99.90;;;;;;5051068;28;22169;-67
2021/12/09 09:15:32;;;;;;;23.70;21.53;;;2.70;99.90;;;;;;5054279;28;21165;-68
2021/12/09 09:18:00;;;;;;;23.80;21.47;;;2.80;99.90;;;;;;5043461;28;20489;-67
2021/12/09 09:20:29;;;;;;;22.00;20.10;;;2.90;99.90;;;;;;5045241;28;21230;-67
2021/12/09 09:22:56;;;;;;;22.67;21.07;;;3.00;99.90;;;;;;5053608;28;20470;-67
2021/12/09 09:25:29;;;;;;;23.27;20.87;;;3.10;99.90;;;;;;5055719;28;20463;-67
2021/12/09 09:27:57;;;;;;;23.90;22.00;;;3.20;99.90;;;;;;5052495;28;20532;-67
2021/12/09 09:30:27;;;;;;;21.40;19.80;;;3.20;99.90;;;;;;5047273;28;20477;-67
2021/12/09 09:32:54;;;;;;;23.90;21.70;;;3.10;99.90;;;;;;5049671;28;20506;-67
2021/12/09 09:35:21;;;;;;;23.17;21.40;;;3.10;99.90;;;;;;5058742;28;20463;-68
2021/12/09 09:37:49;;;;;;;25.40;22.90;;;3.10;99.90;;;;;;5058375;28;20469;-67
2021/12/09 09:40:27;;;;;;;27.10;22.20;;;3.10;99.90;;;;;;5053114;28;20492;-67
2021/12/09 09:43:02;;;;;;;23.97;21.73;;;3.20;99.90;;;;;;5049688;28;20466;-67
2021/12/09 09:45:31;;;;;;;22.13;20.23;;;3.40;99.90;;;;;;5051208;28;20498;-67
2021/12/09 09:47:58;;;;;;;22.57;20.03;;;3.60;99.90;;;;;;5053563;28;20499;-67
2021/12/09 09:50:26;;;;;;;28.50;19.80;;;3.80;99.90;;;;;;5061764;28;21232;-68
2021/12/09 09:52:54;;;;;;;21.53;19.43;;;4.10;99.90;;;;;;5052477;28;20791;-70
2021/12/09 09:55:22;;;;;;;22.37;20.10;;;4.10;99.90;;;;;;5057310;28;20561;-69
2021/12/09 09:57:53;;;;;;;23.63;20.43;;;4.30;99.90;;;;;;5050635;28;20467;-67
2021/12/09 10:00:22;;;;;;;22.10;20.00;;;4.50;99.90;;;;;;5046167;28;20614;-70
2021/12/09 10:02:53;;;;;;;27.10;19.47;;;4.60;99.90;;;;;;5045870;28;20472;-68
2021/12/09 10:05:33;;;;;;;21.43;18.80;;;4.80;99.90;;;;;;5050797;28;20527;-67
2021/12/09 10:08:00;;;;;;;20.47;18.80;;;5.00;99.90;;;;;;5050174;28;20542;-67
2021/12/09 10:10:27;;;;;;;18.73;17.33;;;5.10;99.90;;;;;;5048945;28;20483;-69
2021/12/09 10:12:56;;;;;;;17.77;16.10;;;5.10;99.90;;;;;;5051078;28;20464;-67
2021/12/09 10:15:34;;;;;;;18.43;16.90;;;5.10;99.90;;;;;;5048007;28;20467;-69
2021/12/09 10:18:02;;;;;;;19.37;17.77;;;5.00;99.90;;;;;;5051047;28;20503;-70
2021/12/09 10:20:47;;;;;;;18.23;16.73;;;5.00;99.90;;;;;;5058760;28;21018;-69
2021/12/09 10:23:30;;;;;;;17.90;16.73;;;5.20;99.90;;;;;;5052643;28;20463;-70
2021/12/09 10:26:16;;;;;;;17.83;16.33;;;5.20;99.90;;;;;;5047457;28;20471;-69
2021/12/09 10:28:48;;;;;;;17.13;15.93;;;5.20;99.90;;;;;;5048286;28;20464;-69
2021/12/09 10:31:17;;;;;;;17.40;16.00;;;5.20;99.90;;;;;;5052156;28;20476;-71
2021/12/09 10:34:10;;;;;;;15.57;14.67;;;5.20;99.90;;;;;;5048713;28;20478;-68
2021/12/09 10:36:49;;;;;;;17.43;15.90;;;5.20;99.90;;;;;;5051601;28;20964;-69
2021/12/09 10:39:23;;;;;;;17.83;16.53;;;5.40;99.90;;;;;;5045346;28;20861;-70
2021/12/09 10:41:52;;;;;;;17.10;15.80;;;5.50;99.90;;;;;;5059822;28;20520;-67
2021/12/09 10:44:34;;;;;;;17.87;16.67;;;5.50;99.90;;;;;;5060245;28;20905;-68
2021/12/09 10:47:11;;;;;;;17.63;16.20;;;5.50;99.90;;;;;;5051111;28;20464;-71
2021/12/09 10:50:13;;;;;;;18.03;16.63;;;5.50;99.90;;;;;;5050498;28;20467;-69
2021/12/09 10:52:43;;;;;;;19.53;17.87;;;5.50;99.90;;;;;;5036727;28;20502;-71
2021/12/09 10:55:29;;;;;;;18.40;16.90;;;5.60;99.90;;;;;;5051395;28;20470;-71
2021/12/09 10:58:04;;;;;;;18.67;17.20;;;5.60;99.90;;;;;;5050558;28;20456;-70
2021/12/09 11:00:37;;;;;;;17.97;16.70;;;5.70;99.90;;;;;;5043130;28;21383;-69
2021/12/09 11:03:16;;;;;;;17.70;16.00;;;5.80;99.90;;;;;;5045344;28;20863;-68
2021/12/09 11:05:49;;;;;;;18.30;16.60;;;5.80;99.90;;;;;;5049763;28;20494;-68
2021/12/09 11:08:18;;;;;;;17.70;16.30;;;5.70;99.90;;;;;;5047146;28;20958;-71
2021/12/09 11:10:48;;;;;;;17.40;16.27;;;5.80;99.90;;;;;;5054033;28;20459;-71
2021/12/09 11:13:17;;;;;;;17.70;16.10;;;5.90;99.90;;;;;;5043386;28;20459;-70
2021/12/09 11:15:54;;;;;;;24.53;21.10;;;6.00;99.90;;;;;;5052124;28;20468;-71
2021/12/09 11:18:35;;;;;;;17.77;16.13;;;6.10;99.90;;;;;;5051476;28;20535;-69
2021/12/09 11:21:08;;;;;;;17.40;16.30;;;6.20;99.90;;;;;;5050685;28;20467;-71
2021/12/09 11:23:39;;;;;;;16.70;15.80;;;6.20;99.90;;;;;;5041747;28;20497;-70
2021/12/09 11:26:30;;;;;;;17.73;16.23;;;6.30;99.90;;;;;;5049787;28;20477;-71
2021/12/09 11:29:00;;;;;;;16.20;15.10;;;6.40;99.90;;;;;;5048695;28;20460;-69
2021/12/09 11:31:32;;;;;;;16.03;15.13;;;6.30;99.90;;;;;;5043875;28;20472;-71
2021/12/09 11:34:06;;;;;;;16.33;15.40;;;6.30;99.90;;;;;;5042246;28;20832;-71
2021/12/09 11:36:43;;;;;;;16.50;15.50;;;6.40;99.90;;;;;;5041548;28;20556;-68
2021/12/09 11:39:17;;;;;;;16.43;15.53;;;6.40;99.90;;;;;;5048988;28;20489;-68
2021/12/09 11:41:45;;;;;;;16.80;15.70;;;6.20;99.90;;;;;;5045126;28;20560;-68
2021/12/09 11:44:12;;;;;;;16.50;15.40;;;6.20;99.90;;;;;;5054563;28;20522;-68
2021/12/09 11:46:41;;;;;;;17.00;15.83;;;6.10;99.90;;;;;;5051981;28;20476;-68
2021/12/09 11:49:09;;;;;;;16.40;15.50;;;6.20;99.90;;;;;;5048170;28;20589;-68
2021/12/09 11:51:36;;;;;;;16.80;15.70;;;6.40;99.90;;;;;;5054953;28;20495;-71
2021/12/09 11:54:08;;;;;;;15.03;14.23;;;6.50;99.90;;;;;;5045487;28;20467;-67
2021/12/09 11:56:42;;;;;;;16.20;15.10;;;6.60;99.90;;;;;;5046908;28;21132;-68
2021/12/09 12:13:45;;;;;;;16.30;15.30;;;6.70;99.90;;;;;;5040544;28;20462;-69
2021/12/09 12:16:28;;;;;;;16.53;15.53;;;6.70;99.90;;;;;;5045818;28;20556;-68
2021/12/09 12:19:01;;;;;;;16.60;15.57;;;6.30;99.90;;;;;;5040665;28;20521;-72
2021/12/09 12:27:46;;;;;;;16.53;15.57;;;6.50;99.90;;;;;;5046299;28;20463;-71
2021/12/09 12:36:04;;;;;;;16.70;15.60;;;6.20;99.90;;;;;;5040456;28;21263;-68
2021/12/09 12:41:15;;;;;;;16.80;15.20;;;5.70;99.90;;;;;;5050048;28;20479;-69
2021/12/09 12:43:54;;;;;;;18.10;16.40;;;5.60;99.90;;;;;;5046908;28;20468;-69
2021/12/09 12:46:53;;;;;;;15.63;14.80;;;5.50;99.90;;;;;;5050493;28;20466;-68
2021/12/09 12:49:31;;;;;;;16.30;15.20;;;5.30;99.90;;;;;;5050045;28;20882;-69
2021/12/09 12:52:05;;;;;;;16.07;15.07;;;5.50;99.90;;;;;;5044136;28;21036;-68
2021/12/09 12:54:41;;;;;;;16.37;15.37;;;5.50;99.90;;;;;;5049378;28;20481;-72
2021/12/09 12:57:15;;;;;;;16.23;15.13;;;5.50;99.90;;;;;;5052929;28;20550;-69
2021/12/09 12:59:45;;;;;;;16.00;15.00;;;5.30;99.90;;;;;;5047869;28;20490;-67
2021/12/09 13:05:36;;;;;;;15.83;14.90;;;5.20;99.90;;;;;;5045746;28;20832;-68
2021/12/09 13:08:27;;;;;;;17.13;16.03;;;5.30;99.90;;;;;;5051949;28;20463;-71
2021/12/09 13:13:55;;;;;;;16.27;15.23;;;5.40;99.90;;;;;;5045012;28;20452;-70
2021/12/09 13:16:37;;;;;;;16.97;15.80;;;5.40;99.90;;;;;;5053764;28;20454;-70
2021/12/09 13:19:12;;;;;;;15.77;14.90;;;5.40;99.90;;;;;;5054430;28;20487;-69
2021/12/09 13:21:45;;;;;;;15.93;15.03;;;5.30;99.90;;;;;;5049905;28;20858;-70
2021/12/09 13:24:27;;;;;;;16.90;15.50;;;5.20;99.90;;;;;;5057928;28;20507;-69
2021/12/09 13:27:27;;;;;;;16.63;15.63;;;5.10;99.90;;;;;;5038836;28;20471;-67